createdAt,value
2022-11-12T00:01:07.029Z,5.66
2022-11-12T00:03:34.258Z,5.51
2022-11-12T00:06:01.381Z,5.55
2022-11-12T00:08:28.817Z,5.43
2022-11-12T00:10:55.984Z,5.50
2022-11-12T00:13:22.943Z,5.54
2022-11-12T00:15:50.161Z,5.54
2022-11-12T00:18:17.261Z,5.36
2022-11-12T00:20:45.022Z,4.96
2022-11-12T00:23:12.082Z,4.82
2022-11-12T00:25:39.457Z,5.27
2022-11-12T00:28:10.578Z,5.38
2022-11-12T00:30:41.032Z,5.38
2022-11-12T00:33:08.458Z,5.30
2022-11-12T00:35:35.757Z,5.30
2022-11-12T00:38:03.101Z,5.32
2022-11-12T00:40:30.291Z,5.29
2022-11-12T00:42:57.321Z,5.22
2022-11-12T00:45:24.717Z,5.33
2022-11-12T00:47:56.808Z,5.39
2022-11-12T00:50:24.945Z,5.33
2022-11-12T00:52:53.625Z,5.38
2022-11-12T00:55:20.732Z,5.42
2022-11-12T00:57:47.817Z,5.37
2022-11-12T01:00:18.982Z,5.37
2022-11-12T01:02:50.745Z,5.35
2022-11-12T01:05:20.256Z,5.25
2022-11-12T01:07:53.164Z,5.35
2022-11-12T01:10:22.999Z,5.34
2022-11-12T01:12:50.044Z,5.25
2022-11-12T01:15:17.131Z,5.30
2022-11-12T01:17:44.114Z,5.33
2022-11-12T01:20:11.420Z,5.13
2022-11-12T01:22:38.510Z,5.24
2022-11-12T01:25:06.254Z,5.29
2022-11-12T01:27:34.750Z,5.34
2022-11-12T01:30:01.752Z,5.44
2022-11-12T01:32:28.937Z,5.38
2022-11-12T01:34:55.961Z,5.40
2022-11-12T01:37:22.927Z,5.30
2022-11-12T01:39:49.909Z,5.07
2022-11-12T01:42:16.920Z,5.13
2022-11-12T01:44:46.435Z,5.25
2022-11-12T01:47:30.917Z,5.18
2022-11-12T01:50:33.837Z,5.24
2022-11-12T01:53:11.298Z,5.27
2022-11-12T01:55:38.749Z,5.10
2022-11-12T01:58:16.291Z,5.12
2022-11-12T02:00:44.691Z,5.15
2022-11-12T02:03:25.137Z,4.94
2022-11-12T02:06:09.421Z,4.76
2022-11-12T02:08:38.834Z,4.86
2022-11-12T02:11:18.556Z,4.94
2022-11-12T02:14:04.876Z,5.05
2022-11-12T02:16:42.265Z,5.07
2022-11-12T02:19:16.012Z,5.11
2022-11-12T02:21:43.992Z,5.13
2022-11-12T02:24:13.494Z,5.14
2022-11-12T02:26:52.528Z,5.12
2022-11-12T02:29:19.654Z,5.04
2022-11-12T02:31:46.698Z,5.14
2022-11-12T02:34:13.766Z,5.08
2022-11-12T02:36:40.742Z,4.88
2022-11-12T02:39:07.963Z,5.02
2022-11-12T02:41:35.019Z,4.78
2022-11-12T02:44:02.089Z,4.65
2022-11-12T02:46:29.057Z,4.56
2022-11-12T02:48:56.077Z,4.63
2022-11-12T02:51:23.046Z,4.76
2022-11-12T02:53:50.041Z,4.93
2022-11-12T02:56:17.163Z,4.86
2022-11-12T02:58:44.148Z,4.88
2022-11-12T03:01:11.179Z,4.85
2022-11-12T03:03:38.190Z,4.63
2022-11-12T03:06:05.923Z,4.75
2022-11-12T03:08:32.868Z,4.81
2022-11-12T03:11:05.469Z,4.84
2022-11-12T03:13:32.465Z,4.49
2022-11-12T03:16:03.320Z,4.61
2022-11-12T03:18:30.906Z,4.75
2022-11-12T03:20:57.880Z,4.78
2022-11-12T03:23:27.300Z,4.83
2022-11-12T03:25:54.900Z,4.89
2022-11-12T03:28:22.079Z,4.88
2022-11-12T03:30:49.393Z,5.01
2022-11-12T03:33:17.197Z,4.97
2022-11-12T03:35:44.748Z,5.07
2022-11-12T03:38:11.758Z,5.04
2022-11-12T03:40:38.757Z,4.40
2022-11-12T03:43:05.835Z,4.58
2022-11-12T03:45:32.958Z,4.27
2022-11-12T03:48:00.133Z,4.20
2022-11-12T03:50:30.592Z,4.07
2022-11-12T03:53:00.110Z,4.20
2022-11-12T03:55:29.504Z,4.45
2022-11-12T03:57:59.021Z,4.59
2022-11-12T04:00:29.023Z,4.56
2022-11-12T04:02:59.468Z,4.66
2022-11-12T04:05:45.976Z,4.69
2022-11-12T04:08:35.453Z,4.35
2022-11-12T04:11:13.585Z,4.40
2022-11-12T04:13:47.414Z,4.51
2022-11-12T04:16:40.622Z,4.27
2022-11-12T04:19:29.873Z,4.48
2022-11-12T04:22:10.057Z,4.57
2022-11-12T04:24:59.804Z,4.59
2022-11-12T04:27:31.539Z,4.53
2022-11-12T04:30:18.765Z,4.53
2022-11-12T04:32:54.640Z,4.54
2022-11-12T04:35:25.984Z,4.58
2022-11-12T04:37:53.920Z,4.52
2022-11-12T04:40:43.648Z,4.32
2022-11-12T04:43:35.158Z,4.43
2022-11-12T04:46:04.554Z,4.32
2022-11-12T04:48:31.703Z,4.37
2022-11-12T04:51:24.998Z,4.06
2022-11-12T04:53:52.098Z,3.27
2022-11-12T04:56:19.048Z,3.00
2022-11-12T04:58:46.051Z,2.96
2022-11-12T05:01:13.096Z,3.09
2022-11-12T05:03:40.073Z,3.00
2022-11-12T05:06:28.132Z,3.30
2022-11-12T05:08:55.588Z,3.55
2022-11-12T05:11:22.847Z,3.79
2022-11-12T05:13:49.795Z,3.56
2022-11-12T05:16:16.797Z,3.74
2022-11-12T05:18:43.753Z,3.90
2022-11-12T05:21:29.471Z,3.93
2022-11-12T05:23:56.417Z,3.19
2022-11-12T05:26:23.373Z,3.08
2022-11-12T05:28:50.484Z,3.33
2022-11-12T05:31:17.590Z,3.36
2022-11-12T05:33:44.540Z,2.73
2022-11-12T05:36:11.660Z,2.49
2022-11-12T05:38:39.198Z,2.42
2022-11-12T05:41:06.295Z,2.56
2022-11-12T05:43:33.430Z,3.03
2022-11-12T05:46:00.418Z,3.12
2022-11-12T05:48:27.734Z,3.46
2022-11-12T05:53:43.391Z,2.53
2022-11-12T05:56:11.757Z,2.41
2022-11-12T05:58:38.984Z,2.50
2022-11-12T06:01:06.206Z,2.37
2022-11-12T06:03:33.673Z,2.26
2022-11-12T06:06:00.747Z,2.36
2022-11-12T06:08:28.709Z,2.29
2022-11-12T06:10:56.598Z,2.37
2022-11-12T06:13:25.660Z,2.19
2022-11-12T06:15:55.154Z,2.50
2022-11-12T06:18:24.564Z,2.83
2022-11-12T06:21:10.560Z,3.05
2022-11-12T06:23:37.547Z,2.88
2022-11-12T06:26:04.859Z,3.05
2022-11-12T06:28:31.948Z,2.62
2022-11-12T06:30:58.960Z,2.70
2022-11-12T06:33:25.951Z,2.42
2022-11-12T06:36:05.864Z,2.43
2022-11-12T06:38:36.375Z,2.07
2022-11-12T06:41:04.941Z,2.50
2022-11-12T06:43:34.345Z,2.33
2022-11-12T06:46:15.494Z,2.27
2022-11-12T06:48:43.042Z,2.29
2022-11-12T06:51:21.025Z,2.69
2022-11-12T06:53:49.288Z,3.08
2022-11-12T06:56:16.394Z,3.43
2022-11-12T06:58:43.750Z,3.59
2022-11-12T07:01:17.373Z,3.93
2022-11-12T07:03:45.118Z,3.86
2022-11-12T07:06:18.490Z,3.85
2022-11-12T07:08:49.707Z,3.89
2022-11-12T07:11:19.477Z,4.48
2022-11-12T07:13:47.733Z,4.62
2022-11-12T07:16:18.745Z,4.84
2022-11-12T07:18:49.654Z,4.77
2022-11-12T07:21:20.683Z,4.75
2022-11-12T07:23:48.209Z,4.66
2022-11-12T07:26:30.074Z,4.86
2022-11-12T07:28:57.024Z,4.98
2022-11-12T07:31:25.785Z,4.89
2022-11-12T07:33:53.519Z,4.78
2022-11-12T07:36:21.778Z,5.02
2022-11-12T07:38:54.499Z,5.10
2022-11-12T07:41:25.028Z,5.06
2022-11-12T07:43:53.714Z,4.97
2022-11-12T07:46:28.184Z,5.19
2022-11-12T07:48:56.157Z,5.42
2022-11-12T07:51:26.876Z,5.70
2022-11-12T07:53:59.497Z,5.93
2022-11-12T07:56:29.063Z,6.09
2022-11-12T07:58:56.161Z,6.27
2022-11-12T08:01:36.227Z,6.68
2022-11-12T08:04:07.905Z,6.69
2022-11-12T08:06:36.056Z,6.91
2022-11-12T08:09:07.216Z,7.02
2022-11-12T08:11:35.435Z,7.09
2022-11-12T08:14:03.948Z,7.22
2022-11-12T08:16:31.364Z,7.28
2022-11-12T08:18:58.488Z,7.33
2022-11-12T08:21:26.116Z,7.39
2022-11-12T08:23:53.418Z,7.40
2022-11-12T08:26:21.914Z,7.48
2022-11-12T08:28:49.014Z,7.40
2022-11-12T08:31:21.472Z,7.58
2022-11-12T08:33:49.110Z,7.69
2022-11-12T08:36:18.152Z,7.80
2022-11-12T08:38:45.973Z,7.85
2022-11-12T08:41:15.237Z,7.93
2022-11-12T08:43:43.148Z,7.88
2022-11-12T08:46:10.363Z,7.94
2022-11-12T08:48:40.621Z,8.29
2022-11-12T08:51:08.382Z,8.39
2022-11-12T08:53:35.689Z,8.57
2022-11-12T08:56:03.083Z,8.72
2022-11-12T08:58:30.365Z,8.81
2022-11-12T09:01:03.719Z,8.76
2022-11-12T09:03:30.976Z,8.73
2022-11-12T09:05:58.105Z,8.65
2022-11-12T09:08:26.085Z,8.72
2022-11-12T09:10:53.370Z,8.87
2022-11-12T09:13:30.388Z,9.00
2022-11-12T09:16:07.419Z,9.05
2022-11-12T09:18:34.859Z,9.08
2022-11-12T09:21:12.370Z,9.18
2022-11-12T09:23:39.826Z,9.29
2022-11-12T09:26:07.133Z,9.43
2022-11-12T09:28:34.495Z,9.48
2022-11-12T09:31:02.557Z,9.48
2022-11-12T09:33:37.891Z,9.52
2022-11-12T09:36:05.601Z,9.62
2022-11-12T09:38:32.817Z,9.64
2022-11-12T09:41:34.579Z,9.88
2022-11-12T09:44:21.993Z,9.97
2022-11-12T09:47:21.511Z,9.97
2022-11-12T09:50:34.619Z,10.04
2022-11-12T09:53:17.653Z,10.05
2022-11-12T09:55:50.101Z,10.17
2022-11-12T09:58:19.508Z,10.13
2022-11-12T10:01:03.444Z,10.02
2022-11-12T10:04:42.177Z,10.10
2022-11-12T10:07:46.520Z,10.18
2022-11-12T10:10:21.015Z,10.25
2022-11-12T10:13:21.838Z,10.25
2022-11-12T10:16:39.496Z,10.28
2022-11-12T10:19:52.895Z,10.49
2022-11-12T10:23:07.441Z,10.65
2022-11-12T10:25:35.449Z,10.76
2022-11-12T10:28:38.729Z,10.76
2022-11-12T10:31:19.286Z,10.82
2022-11-12T10:33:46.691Z,10.93
2022-11-12T10:36:28.728Z,10.93
2022-11-12T10:38:56.250Z,10.99
2022-11-12T10:41:34.847Z,11.08
2022-11-12T10:44:06.567Z,11.13
2022-11-12T10:46:38.643Z,11.26
2022-11-12T10:49:16.405Z,11.12
2022-11-12T10:51:57.845Z,11.34
2022-11-12T10:54:27.395Z,11.57
2022-11-12T10:56:55.633Z,11.72
2022-11-12T10:59:25.426Z,11.77
2022-11-12T11:02:00.891Z,11.96
2022-11-12T11:04:38.128Z,12.11
2022-11-12T11:07:21.583Z,12.19
2022-11-12T11:10:00.768Z,12.22
2022-11-12T11:12:32.187Z,12.26
2022-11-12T11:15:27.905Z,12.32
2022-11-12T11:17:55.962Z,12.31
2022-11-12T11:20:51.889Z,12.45
2022-11-12T11:23:30.557Z,12.41
2022-11-12T11:26:10.094Z,12.56
2022-11-12T11:29:26.144Z,12.66
2022-11-12T11:32:33.257Z,12.83
2022-11-12T11:35:24.299Z,12.97
2022-11-12T11:38:16.171Z,13.04
2022-11-12T11:41:19.707Z,13.33
2022-11-12T11:44:46.413Z,13.03
2022-11-12T11:47:50.385Z,13.15
2022-11-12T11:50:23.306Z,13.32
2022-11-12T11:53:24.158Z,13.27
2022-11-12T11:56:11.692Z,13.35
2022-11-12T11:59:21.496Z,13.63
2022-11-12T12:02:19.533Z,13.68
2022-11-12T12:05:41.717Z,13.79
2022-11-12T12:08:25.647Z,13.86
2022-11-12T12:11:29.387Z,13.86
2022-11-12T12:14:05.039Z,13.83
2022-11-12T12:17:18.201Z,13.92
2022-11-12T12:20:26.536Z,13.93
2022-11-12T12:23:37.520Z,14.07
2022-11-12T12:27:17.219Z,14.16
2022-11-12T12:30:01.876Z,14.27
2022-11-12T12:32:58.074Z,14.40
2022-11-12T12:36:31.312Z,14.39
2022-11-12T12:39:19.014Z,14.45
2022-11-12T12:42:24.078Z,14.59
2022-11-12T12:45:35.941Z,14.63
2022-11-12T12:48:13.094Z,14.51
2022-11-12T12:50:42.364Z,14.47
2022-11-12T12:53:27.313Z,14.47
2022-11-12T12:56:02.720Z,14.53
2022-11-12T12:58:44.700Z,14.66
2022-11-12T13:01:23.086Z,14.50
2022-11-12T13:04:07.006Z,14.44
2022-11-12T13:06:46.167Z,14.57
2022-11-12T13:09:13.043Z,14.66
2022-11-12T13:12:01.504Z,14.47
2022-11-12T13:14:37.141Z,14.60
2022-11-12T13:17:11.898Z,14.68
2022-11-12T13:20:03.129Z,14.74
2022-11-12T13:22:50.965Z,14.77
2022-11-12T13:25:17.831Z,14.67
2022-11-12T13:27:45.150Z,14.68
2022-11-12T13:30:17.770Z,14.70
2022-11-12T13:32:47.601Z,14.76
2022-11-12T13:35:23.567Z,14.75
2022-11-12T13:38:10.393Z,14.79
2022-11-12T13:41:08.446Z,14.74
2022-11-12T13:43:44.311Z,14.35
2022-11-12T13:46:33.091Z,14.45
2022-11-12T13:49:10.335Z,14.05
2022-11-12T13:51:51.928Z,14.19
2022-11-12T13:54:37.454Z,14.16
2022-11-12T13:57:30.112Z,14.15
2022-11-12T14:00:26.050Z,14.12
2022-11-12T14:03:04.150Z,14.10
2022-11-12T14:05:36.082Z,14.07
2022-11-12T14:08:45.905Z,14.01
2022-11-12T14:12:02.287Z,13.94
2022-11-12T14:14:53.586Z,13.86
2022-11-12T14:18:14.328Z,13.82
2022-11-12T14:20:42.366Z,13.66
2022-11-12T14:23:25.126Z,13.50
2022-11-12T14:25:57.236Z,13.32
2022-11-12T14:28:32.835Z,13.23
2022-11-12T14:31:03.088Z,13.14
2022-11-12T14:33:33.157Z,13.03
2022-11-12T14:36:14.583Z,12.96
2022-11-12T14:38:55.210Z,12.82
2022-11-12T14:41:34.998Z,12.55
2022-11-12T14:44:13.024Z,12.42
2022-11-12T14:46:54.667Z,12.28
2022-11-12T14:49:44.673Z,12.02
2022-11-12T14:52:27.949Z,11.44
2022-11-12T14:55:03.874Z,11.31
2022-11-12T14:57:32.290Z,11.08
2022-11-12T14:59:59.324Z,10.81
2022-11-12T15:02:49.911Z,10.75
2022-11-12T15:05:23.647Z,10.50
2022-11-12T15:08:10.082Z,10.48
2022-11-12T15:10:44.876Z,10.51
2022-11-12T15:13:20.935Z,10.46
2022-11-12T15:16:07.309Z,10.15
2022-11-12T15:18:35.586Z,10.09
2022-11-12T15:21:28.341Z,10.03
2022-11-12T15:24:33.187Z,9.92
2022-11-12T15:27:37.104Z,9.68
2022-11-12T15:30:25.649Z,9.63
2022-11-12T15:33:11.088Z,9.42
2022-11-12T15:35:49.535Z,9.40
2022-11-12T15:38:35.915Z,9.10
2022-11-12T15:41:04.511Z,8.93
2022-11-12T15:43:36.862Z,9.04
2022-11-12T15:46:03.867Z,8.95
2022-11-12T15:48:30.854Z,8.77
2022-11-12T15:50:58.769Z,8.25
2022-11-12T15:53:26.146Z,8.50
2022-11-12T15:55:53.852Z,8.26
2022-11-12T15:58:33.774Z,7.95
2022-11-12T16:01:01.295Z,8.10
2022-11-12T16:03:31.735Z,7.91
2022-11-12T16:06:03.961Z,7.74
2022-11-12T16:08:34.332Z,8.03
2022-11-12T16:11:01.474Z,8.14
2022-11-12T16:13:37.668Z,7.97
2022-11-12T16:16:08.258Z,7.99
2022-11-12T16:18:35.380Z,8.06
2022-11-12T16:21:02.460Z,8.19
2022-11-12T16:23:29.931Z,8.10
2022-11-12T16:25:57.332Z,7.75
2022-11-12T16:28:24.394Z,7.12
2022-11-12T16:30:51.485Z,6.81
2022-11-12T16:33:18.640Z,7.08
2022-11-12T16:35:45.734Z,7.35
2022-11-12T16:38:17.805Z,7.23
2022-11-12T16:40:45.662Z,7.20
2022-11-12T16:43:12.632Z,7.13
2022-11-12T16:45:42.937Z,7.24
2022-11-12T16:48:20.620Z,7.29
2022-11-12T16:50:48.750Z,7.16
2022-11-12T16:53:15.819Z,7.06
2022-11-12T16:55:43.019Z,7.26
2022-11-12T16:58:19.179Z,6.86
2022-11-12T17:00:49.923Z,6.51
2022-11-12T17:03:17.002Z,6.04
2022-11-12T17:05:44.168Z,5.79
2022-11-12T17:08:11.227Z,5.58
2022-11-12T17:10:38.576Z,5.56
2022-11-12T17:13:05.627Z,5.57
2022-11-12T17:15:32.570Z,5.71
2022-11-12T17:17:59.768Z,5.80
2022-11-12T17:20:27.017Z,5.90
2022-11-12T17:22:54.017Z,5.83
2022-11-12T17:25:20.981Z,5.63
2022-11-12T17:27:47.954Z,5.59
2022-11-12T17:30:15.082Z,5.56
2022-11-12T17:32:42.083Z,5.59
2022-11-12T17:35:09.157Z,5.28
2022-11-12T17:37:36.196Z,5.49
2022-11-12T17:40:04.201Z,5.44
2022-11-12T17:42:31.167Z,5.42
2022-11-12T17:44:58.187Z,5.28
2022-11-12T17:47:25.137Z,5.48
2022-11-12T17:49:52.091Z,5.71
2022-11-12T17:52:19.329Z,5.74
2022-11-12T17:54:46.470Z,5.52
2022-11-12T17:57:13.851Z,5.25
2022-11-12T17:59:40.814Z,4.97
2022-11-12T18:02:12.261Z,4.89
2022-11-12T18:04:39.357Z,5.11
2022-11-12T18:07:06.387Z,5.17
2022-11-12T18:09:33.418Z,5.50
2022-11-12T18:12:01.001Z,5.47
2022-11-12T18:14:28.012Z,5.43
2022-11-12T18:16:56.829Z,5.71
2022-11-12T18:19:23.814Z,6.12
2022-11-12T18:21:52.755Z,6.32
2022-11-12T18:24:19.772Z,6.18
2022-11-12T18:26:46.733Z,6.36
2022-11-12T18:29:13.849Z,6.74
2022-11-12T18:31:41.095Z,6.92
2022-11-12T18:34:14.863Z,6.82
2022-11-12T18:36:41.871Z,6.71
2022-11-12T18:39:09.007Z,6.95
2022-11-12T18:41:36.023Z,7.18
2022-11-12T18:44:03.243Z,7.12
2022-11-12T18:46:30.208Z,7.20
2022-11-12T18:48:57.383Z,7.48
2022-11-12T18:51:24.431Z,7.68
2022-11-12T18:53:51.443Z,7.88
2022-11-12T18:56:21.911Z,7.66
2022-11-12T18:58:49.150Z,7.49
2022-11-12T19:01:21.307Z,7.81
2022-11-12T19:03:52.847Z,8.00
2022-11-12T19:06:20.953Z,8.20
2022-11-12T19:08:48.401Z,8.24
2022-11-12T19:11:18.979Z,8.31
2022-11-12T19:13:50.807Z,8.42
2022-11-12T19:16:22.692Z,8.08
2022-11-12T19:18:51.433Z,8.27
2022-11-12T19:21:25.624Z,8.49
2022-11-12T19:23:57.125Z,8.56
2022-11-12T19:26:24.809Z,8.55
2022-11-12T19:28:52.110Z,7.97
2022-11-12T19:31:26.068Z,8.23
2022-11-12T19:33:53.125Z,8.48
2022-11-12T19:36:24.980Z,8.62
2022-11-12T19:39:02.321Z,8.69
2022-11-12T19:41:29.421Z,8.18
2022-11-12T19:43:56.395Z,8.26
2022-11-12T19:46:23.369Z,8.51
2022-11-12T19:48:51.120Z,8.66
2022-11-12T19:51:18.114Z,8.81
2022-11-12T19:53:45.133Z,8.89
2022-11-12T19:56:17.153Z,8.81
2022-11-12T19:58:48.762Z,8.83
2022-11-12T20:01:18.782Z,8.75
2022-11-12T20:03:46.172Z,8.26
2022-11-12T20:06:20.633Z,8.62
2022-11-12T20:08:47.874Z,8.85
2022-11-12T20:11:18.854Z,8.55
2022-11-12T20:13:46.589Z,8.72
2022-11-12T20:16:22.243Z,8.93
2022-11-12T20:18:55.530Z,9.06
2022-11-12T20:21:24.013Z,9.09
2022-11-12T20:23:51.007Z,8.55
2022-11-12T20:26:17.997Z,8.70
2022-11-12T20:28:45.122Z,8.96
2022-11-12T20:31:16.976Z,8.86
2022-11-12T20:33:43.948Z,8.81
2022-11-12T20:36:15.719Z,8.97
2022-11-12T20:38:44.891Z,8.91
2022-11-12T20:41:15.648Z,8.55
2022-11-12T20:43:43.354Z,8.81
2022-11-12T20:46:14.493Z,8.83
2022-11-12T20:48:43.508Z,9.03
2022-11-12T20:51:24.626Z,8.77
2022-11-12T20:53:58.834Z,8.96
2022-11-12T20:56:28.828Z,9.17
2022-11-12T20:58:59.775Z,8.68
2022-11-12T21:01:29.975Z,9.01
2022-11-12T21:03:58.392Z,8.72
2022-11-12T21:06:28.823Z,8.86
2022-11-12T21:08:59.788Z,9.03
2022-11-12T21:11:27.064Z,9.09
2022-11-12T21:13:54.183Z,9.15
2022-11-12T21:16:21.314Z,8.71
2022-11-12T21:18:48.338Z,8.84
2022-11-12T21:21:20.894Z,8.74
2022-11-12T21:23:51.716Z,9.08
2022-11-12T21:26:23.224Z,8.79
2022-11-12T21:28:59.512Z,9.18
2022-11-12T21:31:30.860Z,8.91
2022-11-12T21:34:07.047Z,8.77
2022-11-12T21:36:35.399Z,8.90
2022-11-12T21:39:04.635Z,9.06
2022-11-12T21:41:32.111Z,9.22
2022-11-12T21:43:59.476Z,9.02
2022-11-12T21:46:30.438Z,9.26
2022-11-12T21:48:57.633Z,8.83
2022-11-12T21:51:31.630Z,9.19
2022-11-12T21:54:04.323Z,8.73
2022-11-12T21:56:33.972Z,9.17
2022-11-12T21:59:03.873Z,9.09
2022-11-12T22:01:34.330Z,9.04
2022-11-12T22:04:07.229Z,9.05
2022-11-12T22:06:38.411Z,9.11
2022-11-12T22:09:05.779Z,9.21
2022-11-12T22:11:32.912Z,9.04
2022-11-12T22:13:59.909Z,9.13
2022-11-12T22:16:29.511Z,9.27
2022-11-12T22:18:58.954Z,9.15
2022-11-12T22:21:39.484Z,9.21
2022-11-12T22:24:09.266Z,9.19
2022-11-12T22:26:36.796Z,9.28
2022-11-12T22:29:04.558Z,9.34
2022-11-12T22:31:33.137Z,9.39
2022-11-12T22:34:02.494Z,9.44
2022-11-12T22:36:31.433Z,9.40
2022-11-12T22:38:58.804Z,9.44
2022-11-12T22:41:32.117Z,9.25
2022-11-12T22:44:02.605Z,9.21
2022-11-12T22:46:34.294Z,9.39
2022-11-12T22:49:03.293Z,9.25
2022-11-12T22:51:33.473Z,9.21
2022-11-12T22:54:05.324Z,9.23
2022-11-12T22:56:33.325Z,9.26
2022-11-12T22:59:03.439Z,9.34
2022-11-12T23:01:35.660Z,9.30
2022-11-12T23:04:07.343Z,9.37
2022-11-12T23:06:34.872Z,9.40
2022-11-12T23:09:02.307Z,9.20
2022-11-12T23:11:29.597Z,9.06
2022-11-12T23:13:57.263Z,9.21
2022-11-12T23:16:33.036Z,9.21
2022-11-12T23:19:00.317Z,9.20
2022-11-12T23:21:29.870Z,9.26
2022-11-12T23:23:58.715Z,9.34
2022-11-12T23:26:31.000Z,9.37
2022-11-12T23:28:58.225Z,9.42
2022-11-12T23:31:29.841Z,9.50
2022-11-12T23:34:00.060Z,9.27
2022-11-12T23:36:28.471Z,9.30
2022-11-12T23:38:57.120Z,9.42
2022-11-12T23:41:26.705Z,9.41
2022-11-12T23:43:55.933Z,9.49
2022-11-12T23:46:23.258Z,9.55
2022-11-12T23:48:50.658Z,9.48
2022-11-12T23:51:21.024Z,9.33
2022-11-12T23:53:49.123Z,9.41
2022-11-12T23:56:19.682Z,9.41
2022-11-12T23:58:47.456Z,9.30
